sensor_id;sensor_type;location;lat;lon;timestamp;P1;durP1;ratioP1;P2;durP2;ratioP2
43327;SDS011;28923;45.412;10.852;2022-10-17T00:02:11;12.55;;;8.38;;
43327;SDS011;28923;45.412;10.852;2022-10-17T00:04:38;12.13;;;8.50;;
43327;SDS011;28923;45.412;10.852;2022-10-17T00:07:04;10.27;;;8.10;;
43327;SDS011;28923;45.412;10.852;2022-10-17T00:09:29;12.60;;;8.27;;
43327;SDS011;28923;45.412;10.852;2022-10-17T00:11:58;11.00;;;8.30;;
43327;SDS011;28923;45.412;10.852;2022-10-17T00:14:28;13.30;;;8.70;;
43327;SDS011;28923;45.412;10.852;2022-10-17T00:16:54;11.02;;;8.13;;
43327;SDS011;28923;45.412;10.852;2022-10-17T00:19:20;9.73;;;8.00;;
43327;SDS011;28923;45.412;10.852;2022-10-17T00:21:50;11.18;;;8.43;;
43327;SDS011;28923;45.412;10.852;2022-10-17T00:24:16;10.15;;;8.40;;
43327;SDS011;28923;45.412;10.852;2022-10-17T00:26:41;9.88;;;7.70;;
43327;SDS011;28923;45.412;10.852;2022-10-17T00:29:07;9.98;;;8.18;;
43327;SDS011;28923;45.412;10.852;2022-10-17T00:31:36;10.00;;;7.82;;
43327;SDS011;28923;45.412;10.852;2022-10-17T00:34:01;9.23;;;7.53;;
43327;SDS011;28923;45.412;10.852;2022-10-17T00:36:27;10.38;;;8.05;;
43327;SDS011;28923;45.412;10.852;2022-10-17T00:38:53;9.55;;;7.85;;
43327;SDS011;28923;45.412;10.852;2022-10-17T00:41:20;9.32;;;7.82;;
43327;SDS011;28923;45.412;10.852;2022-10-17T00:43:53;9.73;;;7.60;;
43327;SDS011;28923;45.412;10.852;2022-10-17T00:46:19;8.60;;;7.68;;
43327;SDS011;28923;45.412;10.852;2022-10-17T00:48:45;8.80;;;7.40;;
43327;SDS011;28923;45.412;10.852;2022-10-17T00:51:10;10.05;;;7.68;;
43327;SDS011;28923;45.412;10.852;2022-10-17T00:53:36;10.55;;;7.45;;
43327;SDS011;28923;45.412;10.852;2022-10-17T00:56:02;8.57;;;7.20;;
43327;SDS011;28923;45.412;10.852;2022-10-17T00:58:27;9.38;;;7.28;;
43327;SDS011;28923;45.412;10.852;2022-10-17T01:00:53;10.75;;;6.53;;
43327;SDS011;28923;45.412;10.852;2022-10-17T01:03:18;10.07;;;7.78;;
43327;SDS011;28923;45.412;10.852;2022-10-17T01:05:44;8.60;;;6.95;;
43327;SDS011;28923;45.412;10.852;2022-10-17T01:08:10;9.82;;;7.50;;
43327;SDS011;28923;45.412;10.852;2022-10-17T01:10:44;8.77;;;7.25;;
43327;SDS011;28923;45.412;10.852;2022-10-17T01:13:14;9.02;;;7.50;;
43327;SDS011;28923;45.412;10.852;2022-10-17T01:16:02;8.73;;;7.25;;
43327;SDS011;28923;45.412;10.852;2022-10-17T01:23:47;8.35;;;7.18;;
43327;SDS011;28923;45.412;10.852;2022-10-17T01:31:24;8.25;;;7.20;;
43327;SDS011;28923;45.412;10.852;2022-10-17T01:33:53;8.15;;;6.97;;
43327;SDS011;28923;45.412;10.852;2022-10-17T01:36:44;8.82;;;6.90;;
43327;SDS011;28923;45.412;10.852;2022-10-17T01:41:46;8.75;;;6.57;;
43327;SDS011;28923;45.412;10.852;2022-10-17T01:44:17;9.18;;;7.20;;
43327;SDS011;28923;45.412;10.852;2022-10-17T01:46:46;8.73;;;7.05;;
43327;SDS011;28923;45.412;10.852;2022-10-17T01:49:13;8.48;;;6.95;;
43327;SDS011;28923;45.412;10.852;2022-10-17T01:51:54;9.98;;;7.53;;
43327;SDS011;28923;45.412;10.852;2022-10-17T01:54:31;7.03;;;6.30;;
43327;SDS011;28923;45.412;10.852;2022-10-17T01:56:58;8.02;;;6.50;;
43327;SDS011;28923;45.412;10.852;2022-10-17T01:59:30;7.60;;;6.18;;
43327;SDS011;28923;45.412;10.852;2022-10-17T02:01:59;8.60;;;7.25;;
43327;SDS011;28923;45.412;10.852;2022-10-17T02:04:25;8.43;;;6.72;;
43327;SDS011;28923;45.412;10.852;2022-10-17T02:06:51;8.23;;;6.60;;
43327;SDS011;28923;45.412;10.852;2022-10-17T02:09:18;8.02;;;6.95;;
43327;SDS011;28923;45.412;10.852;2022-10-17T02:11:47;8.20;;;6.70;;
43327;SDS011;28923;45.412;10.852;2022-10-17T02:22:02;8.30;;;6.50;;
43327;SDS011;28923;45.412;10.852;2022-10-17T02:24:32;7.63;;;6.35;;
43327;SDS011;28923;45.412;10.852;2022-10-17T02:27:05;7.47;;;6.43;;
43327;SDS011;28923;45.412;10.852;2022-10-17T02:32:10;8.35;;;6.53;;
43327;SDS011;28923;45.412;10.852;2022-10-17T02:34:42;7.78;;;6.53;;
43327;SDS011;28923;45.412;10.852;2022-10-17T02:37:11;6.97;;;6.07;;
43327;SDS011;28923;45.412;10.852;2022-10-17T02:39:38;8.57;;;6.32;;
43327;SDS011;28923;45.412;10.852;2022-10-17T02:42:05;8.07;;;6.22;;
43327;SDS011;28923;45.412;10.852;2022-10-17T02:44:31;7.18;;;6.05;;
43327;SDS011;28923;45.412;10.852;2022-10-17T02:47:02;8.25;;;6.05;;
43327;SDS011;28923;45.412;10.852;2022-10-17T02:49:33;7.97;;;6.18;;
43327;SDS011;28923;45.412;10.852;2022-10-17T02:52:11;7.97;;;6.28;;
43327;SDS011;28923;45.412;10.852;2022-10-17T02:54:41;7.22;;;5.95;;
43327;SDS011;28923;45.412;10.852;2022-10-17T02:59:45;7.57;;;6.22;;
43327;SDS011;28923;45.412;10.852;2022-10-17T03:02:11;7.72;;;6.47;;
43327;SDS011;28923;45.412;10.852;2022-10-17T03:04:36;7.47;;;6.40;;
43327;SDS011;28923;45.412;10.852;2022-10-17T03:07:02;8.30;;;6.30;;
43327;SDS011;28923;45.412;10.852;2022-10-17T03:09:27;7.25;;;6.00;;
43327;SDS011;28923;45.412;10.852;2022-10-17T03:11:53;7.00;;;5.72;;
43327;SDS011;28923;45.412;10.852;2022-10-17T03:14:18;7.25;;;6.20;;
43327;SDS011;28923;45.412;10.852;2022-10-17T03:16:44;7.63;;;6.50;;
43327;SDS011;28923;45.412;10.852;2022-10-17T03:19:10;7.57;;;6.38;;
43327;SDS011;28923;45.412;10.852;2022-10-17T03:21:35;6.90;;;6.20;;
43327;SDS011;28923;45.412;10.852;2022-10-17T03:24:02;6.78;;;5.93;;
43327;SDS011;28923;45.412;10.852;2022-10-17T03:26:28;7.40;;;6.00;;
43327;SDS011;28923;45.412;10.852;2022-10-17T03:28:54;7.40;;;6.28;;
43327;SDS011;28923;45.412;10.852;2022-10-17T03:31:21;8.52;;;6.70;;
43327;SDS011;28923;45.412;10.852;2022-10-17T03:33:47;7.03;;;6.28;;
43327;SDS011;28923;45.412;10.852;2022-10-17T03:36:14;7.57;;;6.43;;
43327;SDS011;28923;45.412;10.852;2022-10-17T03:38:41;7.53;;;6.43;;
43327;SDS011;28923;45.412;10.852;2022-10-17T03:41:07;7.55;;;6.15;;
43327;SDS011;28923;45.412;10.852;2022-10-17T03:43:34;8.43;;;6.40;;
43327;SDS011;28923;45.412;10.852;2022-10-17T03:45:59;6.60;;;5.72;;
43327;SDS011;28923;45.412;10.852;2022-10-17T03:48:25;9.07;;;6.78;;
43327;SDS011;28923;45.412;10.852;2022-10-17T03:50:52;7.82;;;6.15;;
43327;SDS011;28923;45.412;10.852;2022-10-17T03:53:22;8.90;;;5.85;;
43327;SDS011;28923;45.412;10.852;2022-10-17T03:55:47;7.72;;;6.15;;
43327;SDS011;28923;45.412;10.852;2022-10-17T03:58:13;8.23;;;6.15;;
43327;SDS011;28923;45.412;10.852;2022-10-17T04:00:38;8.48;;;6.50;;
43327;SDS011;28923;45.412;10.852;2022-10-17T04:03:04;6.97;;;6.28;;
43327;SDS011;28923;45.412;10.852;2022-10-17T04:05:30;7.00;;;5.82;;
43327;SDS011;28923;45.412;10.852;2022-10-17T04:07:55;7.55;;;6.28;;
43327;SDS011;28923;45.412;10.852;2022-10-17T04:10:34;7.85;;;6.28;;
43327;SDS011;28923;45.412;10.852;2022-10-17T04:13:00;7.40;;;6.05;;
43327;SDS011;28923;45.412;10.852;2022-10-17T04:15:26;9.05;;;6.57;;
43327;SDS011;28923;45.412;10.852;2022-10-17T04:17:51;6.63;;;5.60;;
43327;SDS011;28923;45.412;10.852;2022-10-17T04:20:17;6.10;;;5.45;;
43327;SDS011;28923;45.412;10.852;2022-10-17T04:22:42;7.03;;;6.32;;
43327;SDS011;28923;45.412;10.852;2022-10-17T04:25:08;6.20;;;5.35;;
43327;SDS011;28923;45.412;10.852;2022-10-17T04:27:40;8.10;;;6.17;;
43327;SDS011;28923;45.412;10.852;2022-10-17T04:30:05;7.38;;;5.95;;
43327;SDS011;28923;45.412;10.852;2022-10-17T04:32:34;6.45;;;5.75;;
43327;SDS011;28923;45.412;10.852;2022-10-17T04:35:05;8.82;;;5.95;;
43327;SDS011;28923;45.412;10.852;2022-10-17T04:37:31;5.82;;;5.22;;
43327;SDS011;28923;45.412;10.852;2022-10-17T04:40:00;6.15;;;5.35;;
43327;SDS011;28923;45.412;10.852;2022-10-17T04:42:29;7.53;;;6.13;;
43327;SDS011;28923;45.412;10.852;2022-10-17T04:44:55;7.13;;;6.00;;
43327;SDS011;28923;45.412;10.852;2022-10-17T04:47:22;6.85;;;6.15;;
43327;SDS011;28923;45.412;10.852;2022-10-17T04:49:48;7.70;;;6.32;;
43327;SDS011;28923;45.412;10.852;2022-10-17T04:52:14;6.03;;;5.25;;
43327;SDS011;28923;45.412;10.852;2022-10-17T04:54:46;6.53;;;5.80;;
43327;SDS011;28923;45.412;10.852;2022-10-17T04:57:12;6.38;;;5.40;;
43327;SDS011;28923;45.412;10.852;2022-10-17T04:59:39;7.30;;;5.97;;
43327;SDS011;28923;45.412;10.852;2022-10-17T05:02:20;6.43;;;5.63;;
43327;SDS011;28923;45.412;10.852;2022-10-17T05:18:16;6.95;;;5.55;;
43327;SDS011;28923;45.412;10.852;2022-10-17T05:20:43;8.65;;;6.20;;
43327;SDS011;28923;45.412;10.852;2022-10-17T05:23:33;5.55;;;5.00;;
43327;SDS011;28923;45.412;10.852;2022-10-17T05:26:24;7.00;;;5.15;;
43327;SDS011;28923;45.412;10.852;2022-10-17T05:29:14;6.40;;;5.60;;
43327;SDS011;28923;45.412;10.852;2022-10-17T05:32:05;6.00;;;5.15;;
43327;SDS011;28923;45.412;10.852;2022-10-17T05:34:56;6.82;;;5.85;;
43327;SDS011;28923;45.412;10.852;2022-10-17T05:37:46;8.30;;;5.40;;
43327;SDS011;28923;45.412;10.852;2022-10-17T05:40:37;6.07;;;5.32;;
43327;SDS011;28923;45.412;10.852;2022-10-17T05:43:29;6.43;;;5.57;;
43327;SDS011;28923;45.412;10.852;2022-10-17T05:46:20;6.45;;;5.63;;
43327;SDS011;28923;45.412;10.852;2022-10-17T05:49:11;6.47;;;5.60;;
43327;SDS011;28923;45.412;10.852;2022-10-17T05:52:02;6.85;;;5.40;;
43327;SDS011;28923;45.412;10.852;2022-10-17T05:54:53;7.53;;;5.38;;
43327;SDS011;28923;45.412;10.852;2022-10-17T05:57:44;6.00;;;5.40;;
43327;SDS011;28923;45.412;10.852;2022-10-17T06:00:35;6.40;;;5.13;;
43327;SDS011;28923;45.412;10.852;2022-10-17T06:03:26;6.72;;;6.03;;
43327;SDS011;28923;45.412;10.852;2022-10-17T06:06:17;6.57;;;5.20;;
43327;SDS011;28923;45.412;10.852;2022-10-17T06:09:08;7.35;;;5.13;;
43327;SDS011;28923;45.412;10.852;2022-10-17T06:11:59;5.90;;;5.30;;
43327;SDS011;28923;45.412;10.852;2022-10-17T06:14:50;5.68;;;5.07;;
43327;SDS011;28923;45.412;10.852;2022-10-17T06:17:41;6.55;;;5.35;;
43327;SDS011;28923;45.412;10.852;2022-10-17T06:20:31;7.88;;;5.80;;
43327;SDS011;28923;45.412;10.852;2022-10-17T06:23:21;6.30;;;5.50;;
43327;SDS011;28923;45.412;10.852;2022-10-17T06:26:11;7.07;;;5.50;;
43327;SDS011;28923;45.412;10.852;2022-10-17T06:29:02;6.00;;;5.40;;
43327;SDS011;28923;45.412;10.852;2022-10-17T06:31:53;7.25;;;6.00;;
43327;SDS011;28923;45.412;10.852;2022-10-17T06:34:44;8.50;;;5.80;;
43327;SDS011;28923;45.412;10.852;2022-10-17T06:37:35;8.85;;;5.80;;
43327;SDS011;28923;45.412;10.852;2022-10-17T06:40:27;10.38;;;5.95;;
43327;SDS011;28923;45.412;10.852;2022-10-17T06:43:18;9.57;;;5.68;;
43327;SDS011;28923;45.412;10.852;2022-10-17T06:46:09;7.95;;;5.40;;
43327;SDS011;28923;45.412;10.852;2022-10-17T06:49:00;7.47;;;5.35;;
43327;SDS011;28923;45.412;10.852;2022-10-17T06:51:50;7.47;;;5.53;;
43327;SDS011;28923;45.412;10.852;2022-10-17T06:54:41;9.05;;;5.68;;
43327;SDS011;28923;45.412;10.852;2022-10-17T06:57:31;8.55;;;5.70;;
43327;SDS011;28923;45.412;10.852;2022-10-17T07:00:23;8.27;;;5.50;;
43327;SDS011;28923;45.412;10.852;2022-10-17T07:03:13;7.15;;;5.53;;
43327;SDS011;28923;45.412;10.852;2022-10-17T07:06:04;7.60;;;5.45;;
43327;SDS011;28923;45.412;10.852;2022-10-17T07:08:54;6.38;;;5.35;;
43327;SDS011;28923;45.412;10.852;2022-10-17T07:11:44;10.00;;;5.93;;
43327;SDS011;28923;45.412;10.852;2022-10-17T07:14:34;7.03;;;5.40;;
43327;SDS011;28923;45.412;10.852;2022-10-17T07:17:24;9.70;;;5.53;;
43327;SDS011;28923;45.412;10.852;2022-10-17T07:20:14;7.85;;;5.90;;
43327;SDS011;28923;45.412;10.852;2022-10-17T07:23:05;8.23;;;5.50;;
43327;SDS011;28923;45.412;10.852;2022-10-17T07:25:59;7.85;;;5.38;;
43327;SDS011;28923;45.412;10.852;2022-10-17T07:28:51;8.57;;;5.72;;
43327;SDS011;28923;45.412;10.852;2022-10-17T07:57:52;7.93;;;6.28;;
43327;SDS011;28923;45.412;10.852;2022-10-17T08:00:17;8.75;;;6.32;;
43327;SDS011;28923;45.412;10.852;2022-10-17T08:02:43;9.25;;;6.82;;
43327;SDS011;28923;45.412;10.852;2022-10-17T08:05:08;10.20;;;6.65;;
43327;SDS011;28923;45.412;10.852;2022-10-17T08:07:34;9.73;;;6.22;;
43327;SDS011;28923;45.412;10.852;2022-10-17T08:09:59;7.60;;;6.07;;
43327;SDS011;28923;45.412;10.852;2022-10-17T08:12:24;8.85;;;6.15;;
43327;SDS011;28923;45.412;10.852;2022-10-17T08:14:50;10.15;;;6.38;;
43327;SDS011;28923;45.412;10.852;2022-10-17T08:17:15;10.23;;;6.00;;
43327;SDS011;28923;45.412;10.852;2022-10-17T08:19:41;15.10;;;6.90;;
43327;SDS011;28923;45.412;10.852;2022-10-17T08:22:06;8.15;;;6.18;;
43327;SDS011;28923;45.412;10.852;2022-10-17T08:24:32;9.98;;;6.13;;
43327;SDS011;28923;45.412;10.852;2022-10-17T08:26:57;15.15;;;6.78;;
43327;SDS011;28923;45.412;10.852;2022-10-17T08:29:24;12.45;;;6.45;;
43327;SDS011;28923;45.412;10.852;2022-10-17T08:31:50;14.55;;;6.75;;
43327;SDS011;28923;45.412;10.852;2022-10-17T08:34:15;9.65;;;6.38;;
43327;SDS011;28923;45.412;10.852;2022-10-17T08:36:41;11.63;;;6.47;;
43327;SDS011;28923;45.412;10.852;2022-10-17T08:39:06;9.40;;;6.72;;
43327;SDS011;28923;45.412;10.852;2022-10-17T08:44:02;13.05;;;6.65;;
43327;SDS011;28923;45.412;10.852;2022-10-17T08:46:30;12.57;;;6.95;;
43327;SDS011;28923;45.412;10.852;2022-10-17T08:48:56;18.38;;;7.05;;
43327;SDS011;28923;45.412;10.852;2022-10-17T08:51:24;11.85;;;6.43;;
43327;SDS011;28923;45.412;10.852;2022-10-17T08:54:07;14.43;;;7.25;;
43327;SDS011;28923;45.412;10.852;2022-10-17T08:56:39;12.38;;;6.85;;
43327;SDS011;28923;45.412;10.852;2022-10-17T08:59:16;12.50;;;7.55;;
43327;SDS011;28923;45.412;10.852;2022-10-17T09:06:44;10.00;;;7.05;;
43327;SDS011;28923;45.412;10.852;2022-10-17T09:14:29;11.25;;;7.28;;
43327;SDS011;28923;45.412;10.852;2022-10-17T09:21:57;13.63;;;8.00;;
43327;SDS011;28923;45.412;10.852;2022-10-17T09:26:49;13.90;;;8.07;;
43327;SDS011;28923;45.412;10.852;2022-10-17T09:29:21;13.30;;;8.00;;
43327;SDS011;28923;45.412;10.852;2022-10-17T09:32:30;11.73;;;7.97;;
43327;SDS011;28923;45.412;10.852;2022-10-17T09:34:36;10.02;;;6.95;;
43327;SDS011;28923;45.412;10.852;2022-10-17T09:37:02;10.18;;;7.75;;
43327;SDS011;28923;45.412;10.852;2022-10-17T09:39:27;9.18;;;6.75;;
43327;SDS011;28923;45.412;10.852;2022-10-17T09:41:57;9.57;;;7.18;;
43327;SDS011;28923;45.412;10.852;2022-10-17T09:47:03;12.45;;;7.85;;
43327;SDS011;28923;45.412;10.852;2022-10-17T09:51:59;9.55;;;7.13;;
43327;SDS011;28923;45.412;10.852;2022-10-17T09:54:26;12.00;;;8.60;;
43327;SDS011;28923;45.412;10.852;2022-10-17T09:57:00;10.55;;;7.32;;
43327;SDS011;28923;45.412;10.852;2022-10-17T10:01:52;12.63;;;7.67;;
43327;SDS011;28923;45.412;10.852;2022-10-17T10:04:31;11.93;;;8.02;;
43327;SDS011;28923;45.412;10.852;2022-10-17T10:07:00;10.85;;;7.10;;
43327;SDS011;28923;45.412;10.852;2022-10-17T10:09:27;11.73;;;7.30;;
43327;SDS011;28923;45.412;10.852;2022-10-17T10:11:54;9.57;;;7.50;;
43327;SDS011;28923;45.412;10.852;2022-10-17T10:16:50;9.23;;;7.15;;
43327;SDS011;28923;45.412;10.852;2022-10-17T10:21:56;9.82;;;7.20;;
43327;SDS011;28923;45.412;10.852;2022-10-17T10:24:22;12.52;;;7.85;;
43327;SDS011;28923;45.412;10.852;2022-10-17T10:26:49;10.32;;;7.63;;
43327;SDS011;28923;45.412;10.852;2022-10-17T10:31:45;9.25;;;7.47;;
43327;SDS011;28923;45.412;10.852;2022-10-17T10:34:21;11.07;;;7.75;;
43327;SDS011;28923;45.412;10.852;2022-10-17T10:39:22;9.07;;;7.55;;
43327;SDS011;28923;45.412;10.852;2022-10-17T10:41:49;10.82;;;7.85;;
43327;SDS011;28923;45.412;10.852;2022-10-17T10:44:15;10.40;;;7.97;;
43327;SDS011;28923;45.412;10.852;2022-10-17T10:46:42;10.45;;;8.15;;
43327;SDS011;28923;45.412;10.852;2022-10-17T10:49:26;9.88;;;7.95;;
43327;SDS011;28923;45.412;10.852;2022-10-17T10:51:52;10.48;;;8.18;;
43327;SDS011;28923;45.412;10.852;2022-10-17T10:54:23;9.48;;;7.85;;
43327;SDS011;28923;45.412;10.852;2022-10-17T10:56:51;10.65;;;8.10;;
43327;SDS011;28923;45.412;10.852;2022-10-17T11:06:44;9.60;;;7.43;;
43327;SDS011;28923;45.412;10.852;2022-10-17T11:11:39;12.55;;;7.82;;
43327;SDS011;28923;45.412;10.852;2022-10-17T11:17:00;10.25;;;8.23;;
43327;SDS011;28923;45.412;10.852;2022-10-17T11:19:30;11.07;;;8.52;;
43327;SDS011;28923;45.412;10.852;2022-10-17T11:22:14;10.57;;;7.88;;
43327;SDS011;28923;45.412;10.852;2022-10-17T11:24:42;9.23;;;7.57;;
43327;SDS011;28923;45.412;10.852;2022-10-17T11:27:10;9.55;;;7.95;;
43327;SDS011;28923;45.412;10.852;2022-10-17T11:29:37;9.52;;;7.90;;
43327;SDS011;28923;45.412;10.852;2022-10-17T11:32:13;8.93;;;7.20;;
43327;SDS011;28923;45.412;10.852;2022-10-17T11:34:40;9.93;;;7.65;;
43327;SDS011;28923;45.412;10.852;2022-10-17T11:37:12;9.15;;;7.93;;
43327;SDS011;28923;45.412;10.852;2022-10-17T11:42:21;10.18;;;7.75;;
43327;SDS011;28923;45.412;10.852;2022-10-17T11:44:49;8.65;;;7.50;;
43327;SDS011;28923;45.412;10.852;2022-10-17T11:47:28;9.18;;;7.47;;
43327;SDS011;28923;45.412;10.852;2022-10-17T11:50:17;10.25;;;7.55;;
43327;SDS011;28923;45.412;10.852;2022-10-17T11:52:42;10.07;;;7.75;;
43327;SDS011;28923;45.412;10.852;2022-10-17T12:02:35;10.20;;;7.25;;
43327;SDS011;28923;45.412;10.852;2022-10-17T12:12:45;9.57;;;7.35;;
43327;SDS011;28923;45.412;10.852;2022-10-17T12:17:38;8.82;;;7.72;;
43327;SDS011;28923;45.412;10.852;2022-10-17T12:22:45;8.85;;;7.72;;
43327;SDS011;28923;45.412;10.852;2022-10-17T12:25:15;8.85;;;7.47;;
43327;SDS011;28923;45.412;10.852;2022-10-17T12:27:42;8.50;;;7.18;;
43327;SDS011;28923;45.412;10.852;2022-10-17T12:30:17;10.25;;;7.55;;
43327;SDS011;28923;45.412;10.852;2022-10-17T12:32:53;9.40;;;7.78;;
43327;SDS011;28923;45.412;10.852;2022-10-17T12:35:20;9.77;;;7.97;;
43327;SDS011;28923;45.412;10.852;2022-10-17T12:42:58;9.65;;;7.90;;
43327;SDS011;28923;45.412;10.852;2022-10-17T12:48:08;9.32;;;7.60;;
43327;SDS011;28923;45.412;10.852;2022-10-17T12:53:18;9.15;;;7.43;;
43327;SDS011;28923;45.412;10.852;2022-10-17T12:55:45;8.63;;;7.15;;
43327;SDS011;28923;45.412;10.852;2022-10-17T12:58:12;8.07;;;6.97;;
43327;SDS011;28923;45.412;10.852;2022-10-17T13:00:45;10.18;;;7.50;;
43327;SDS011;28923;45.412;10.852;2022-10-17T13:03:16;9.60;;;7.38;;
43327;SDS011;28923;45.412;10.852;2022-10-17T13:05:49;8.85;;;7.22;;
43327;SDS011;28923;45.412;10.852;2022-10-17T13:08:20;9.75;;;7.70;;
43327;SDS011;28923;45.412;10.852;2022-10-17T13:10:47;7.80;;;6.97;;
43327;SDS011;28923;45.412;10.852;2022-10-17T13:13:17;9.60;;;7.93;;
43327;SDS011;28923;45.412;10.852;2022-10-17T13:15:48;10.13;;;7.25;;
43327;SDS011;28923;45.412;10.852;2022-10-17T13:18:17;9.13;;;7.32;;
43327;SDS011;28923;45.412;10.852;2022-10-17T13:20:42;7.95;;;6.78;;
43327;SDS011;28923;45.412;10.852;2022-10-17T13:23:24;9.13;;;7.22;;
43327;SDS011;28923;45.412;10.852;2022-10-17T13:26:07;8.25;;;7.05;;
43327;SDS011;28923;45.412;10.852;2022-10-17T13:28:35;8.57;;;6.88;;
43327;SDS011;28923;45.412;10.852;2022-10-17T13:31:01;7.97;;;6.80;;
43327;SDS011;28923;45.412;10.852;2022-10-17T13:33:28;9.30;;;7.50;;
43327;SDS011;28923;45.412;10.852;2022-10-17T13:35:55;10.38;;;7.47;;
43327;SDS011;28923;45.412;10.852;2022-10-17T13:38:22;9.63;;;7.30;;
43327;SDS011;28923;45.412;10.852;2022-10-17T13:40:48;8.73;;;7.25;;
43327;SDS011;28923;45.412;10.852;2022-10-17T13:43:21;8.55;;;7.15;;
43327;SDS011;28923;45.412;10.852;2022-10-17T13:45:54;9.48;;;7.80;;
43327;SDS011;28923;45.412;10.852;2022-10-17T13:48:25;7.45;;;6.60;;
43327;SDS011;28923;45.412;10.852;2022-10-17T13:50:52;8.25;;;6.70;;
43327;SDS011;28923;45.412;10.852;2022-10-17T13:53:21;8.02;;;6.90;;
43327;SDS011;28923;45.412;10.852;2022-10-17T13:55:53;8.10;;;6.45;;
43327;SDS011;28923;45.412;10.852;2022-10-17T13:58:18;8.48;;;6.75;;
43327;SDS011;28923;45.412;10.852;2022-10-17T14:00:44;8.32;;;6.90;;
43327;SDS011;28923;45.412;10.852;2022-10-17T14:03:10;8.00;;;6.63;;
43327;SDS011;28923;45.412;10.852;2022-10-17T14:05:56;6.72;;;6.03;;
43327;SDS011;28923;45.412;10.852;2022-10-17T14:08:21;7.10;;;6.40;;
43327;SDS011;28923;45.412;10.852;2022-10-17T14:10:46;7.68;;;6.32;;
43327;SDS011;28923;45.412;10.852;2022-10-17T14:13:20;8.20;;;6.75;;
43327;SDS011;28923;45.412;10.852;2022-10-17T14:15:47;7.32;;;6.18;;
43327;SDS011;28923;45.412;10.852;2022-10-17T14:18:13;7.40;;;6.55;;
43327;SDS011;28923;45.412;10.852;2022-10-17T14:20:44;8.57;;;6.80;;
43327;SDS011;28923;45.412;10.852;2022-10-17T14:26:09;6.85;;;5.90;;
43327;SDS011;28923;45.412;10.852;2022-10-17T14:28:34;7.43;;;6.28;;
43327;SDS011;28923;45.412;10.852;2022-10-17T14:33:46;7.47;;;6.20;;
43327;SDS011;28923;45.412;10.852;2022-10-17T14:36:12;7.07;;;6.15;;
43327;SDS011;28923;45.412;10.852;2022-10-17T14:38:43;7.03;;;5.82;;
43327;SDS011;28923;45.412;10.852;2022-10-17T14:41:12;7.28;;;5.80;;
43327;SDS011;28923;45.412;10.852;2022-10-17T14:43:39;6.95;;;6.25;;
43327;SDS011;28923;45.412;10.852;2022-10-17T14:46:04;7.20;;;6.10;;
43327;SDS011;28923;45.412;10.852;2022-10-17T14:48:31;7.32;;;6.57;;
43327;SDS011;28923;45.412;10.852;2022-10-17T14:53:35;7.50;;;5.93;;
43327;SDS011;28923;45.412;10.852;2022-10-17T14:56:02;6.38;;;5.65;;
43327;SDS011;28923;45.412;10.852;2022-10-17T14:58:28;6.78;;;6.05;;
43327;SDS011;28923;45.412;10.852;2022-10-17T15:00:55;7.28;;;6.10;;
43327;SDS011;28923;45.412;10.852;2022-10-17T15:03:21;7.13;;;5.90;;
43327;SDS011;28923;45.412;10.852;2022-10-17T15:05:47;6.45;;;5.50;;
43327;SDS011;28923;45.412;10.852;2022-10-17T15:08:13;7.38;;;5.68;;
43327;SDS011;28923;45.412;10.852;2022-10-17T15:10:39;8.13;;;5.80;;
43327;SDS011;28923;45.412;10.852;2022-10-17T15:13:06;7.15;;;5.95;;
43327;SDS011;28923;45.412;10.852;2022-10-17T15:15:32;6.88;;;5.55;;
43327;SDS011;28923;45.412;10.852;2022-10-17T15:17:57;7.68;;;5.88;;
43327;SDS011;28923;45.412;10.852;2022-10-17T15:20:23;8.45;;;5.93;;
43327;SDS011;28923;45.412;10.852;2022-10-17T15:22:51;12.40;;;5.75;;
43327;SDS011;28923;45.412;10.852;2022-10-17T15:25:17;7.57;;;5.75;;
43327;SDS011;28923;45.412;10.852;2022-10-17T15:27:42;8.73;;;6.25;;
43327;SDS011;28923;45.412;10.852;2022-10-17T15:30:18;8.45;;;6.60;;
43327;SDS011;28923;45.412;10.852;2022-10-17T15:32:44;10.40;;;6.72;;
43327;SDS011;28923;45.412;10.852;2022-10-17T15:35:10;11.32;;;6.10;;
43327;SDS011;28923;45.412;10.852;2022-10-17T15:37:35;8.07;;;5.95;;
43327;SDS011;28923;45.412;10.852;2022-10-17T15:40:01;9.35;;;6.65;;
43327;SDS011;28923;45.412;10.852;2022-10-17T15:42:27;9.68;;;6.15;;
43327;SDS011;28923;45.412;10.852;2022-10-17T15:44:53;7.93;;;6.38;;
43327;SDS011;28923;45.412;10.852;2022-10-17T15:49:47;8.82;;;6.30;;
43327;SDS011;28923;45.412;10.852;2022-10-17T15:52:12;9.85;;;6.15;;
43327;SDS011;28923;45.412;10.852;2022-10-17T15:54:38;9.68;;;6.20;;
43327;SDS011;28923;45.412;10.852;2022-10-17T15:57:03;11.50;;;6.22;;
43327;SDS011;28923;45.412;10.852;2022-10-17T15:59:30;12.82;;;7.05;;
43327;SDS011;28923;45.412;10.852;2022-10-17T16:01:56;11.25;;;6.55;;
43327;SDS011;28923;45.412;10.852;2022-10-17T16:04:21;9.63;;;6.45;;
43327;SDS011;28923;45.412;10.852;2022-10-17T16:06:48;9.70;;;6.15;;
43327;SDS011;28923;45.412;10.852;2022-10-17T16:09:13;12.15;;;6.20;;
43327;SDS011;28923;45.412;10.852;2022-10-17T16:11:40;14.57;;;7.03;;
43327;SDS011;28923;45.412;10.852;2022-10-17T16:14:06;11.18;;;6.10;;
43327;SDS011;28923;45.412;10.852;2022-10-17T16:16:32;12.27;;;6.90;;
43327;SDS011;28923;45.412;10.852;2022-10-17T16:18:58;7.30;;;6.28;;
43327;SDS011;28923;45.412;10.852;2022-10-17T16:21:27;12.18;;;6.90;;
43327;SDS011;28923;45.412;10.852;2022-10-17T16:23:53;9.32;;;6.95;;
43327;SDS011;28923;45.412;10.852;2022-10-17T16:26:19;11.07;;;6.85;;
43327;SDS011;28923;45.412;10.852;2022-10-17T16:28:45;11.65;;;7.20;;
43327;SDS011;28923;45.412;10.852;2022-10-17T16:31:18;10.50;;;6.75;;
43327;SDS011;28923;45.412;10.852;2022-10-17T16:33:45;9.68;;;6.30;;
43327;SDS011;28923;45.412;10.852;2022-10-17T16:36:10;9.45;;;6.47;;
43327;SDS011;28923;45.412;10.852;2022-10-17T16:38:35;10.70;;;6.72;;
43327;SDS011;28923;45.412;10.852;2022-10-17T16:41:01;10.38;;;6.70;;
43327;SDS011;28923;45.412;10.852;2022-10-17T16:43:26;9.55;;;6.50;;
43327;SDS011;28923;45.412;10.852;2022-10-17T16:45:54;9.98;;;6.50;;
43327;SDS011;28923;45.412;10.852;2022-10-17T16:48:19;9.98;;;6.32;;
43327;SDS011;28923;45.412;10.852;2022-10-17T16:50:44;9.63;;;7.10;;
43327;SDS011;28923;45.412;10.852;2022-10-17T16:53:10;10.85;;;6.93;;
43327;SDS011;28923;45.412;10.852;2022-10-17T16:55:35;12.93;;;6.85;;
43327;SDS011;28923;45.412;10.852;2022-10-17T16:58:00;10.85;;;6.70;;
43327;SDS011;28923;45.412;10.852;2022-10-17T17:00:26;10.93;;;7.20;;
43327;SDS011;28923;45.412;10.852;2022-10-17T17:02:51;8.68;;;6.85;;
43327;SDS011;28923;45.412;10.852;2022-10-17T17:05:17;12.57;;;6.93;;
43327;SDS011;28923;45.412;10.852;2022-10-17T17:07:43;11.63;;;6.75;;
43327;SDS011;28923;45.412;10.852;2022-10-17T17:10:09;16.17;;;7.45;;
43327;SDS011;28923;45.412;10.852;2022-10-17T17:12:35;8.57;;;6.65;;
43327;SDS011;28923;45.412;10.852;2022-10-17T17:15:01;9.35;;;6.13;;
43327;SDS011;28923;45.412;10.852;2022-10-17T17:17:27;12.73;;;6.80;;
43327;SDS011;28923;45.412;10.852;2022-10-17T17:19:52;22.13;;;8.13;;
43327;SDS011;28923;45.412;10.852;2022-10-17T17:22:18;14.63;;;7.72;;
43327;SDS011;28923;45.412;10.852;2022-10-17T17:24:44;18.17;;;8.38;;
43327;SDS011;28923;45.412;10.852;2022-10-17T17:27:09;17.20;;;8.23;;
43327;SDS011;28923;45.412;10.852;2022-10-17T17:29:36;17.48;;;8.68;;
43327;SDS011;28923;45.412;10.852;2022-10-17T17:32:01;17.92;;;8.30;;
43327;SDS011;28923;45.412;10.852;2022-10-17T17:34:27;15.73;;;9.18;;